State Park Place, Illinois
Current Conditions -  °F | °C
As of 2:58 PM on Saturday 22 Nov 2014 (Local Time) from KBLV Reporting Station
Overcast Overcast  
Wind Chill: 54°   Ceiling: 3100
Heat Index: 54°   Visibility: 10mi
Dew Point: 52°   Wind: 9mph
Humidity: 93%   Direction: 190°S
Pressure: 29.99"   Gusts: NA
Location:  38.6902°N, 89.9816°W
Report Text: KBLV 222058Z AUTO 19008KT 10SM BKN031 OVC040 12/11 A2999 RMK AO2 PK WND 20026/21 RAB2033 SLP160 P0002 60002 T01240113 20026 57019
Loading
Personal Weather Stations






























Interactive Weather Map New forecast layout! Learn more

10-Day Weather Forecast

Advertisements
Track Severe Weather on mobile